sensor_id;sensor_type;location;lat;lon;timestamp;P1;durP1;ratioP1;P2;durP2;ratioP2
1328;SDS011;658;48.820;9.354;2023-05-10T00:02:04;1.13;;;1.03;;
1328;SDS011;658;48.820;9.354;2023-05-10T00:06:05;1.30;;;1.20;;
1328;SDS011;658;48.820;9.354;2023-05-10T00:10:06;0.90;;;0.90;;
1328;SDS011;658;48.820;9.354;2023-05-10T00:14:07;1.13;;;1.13;;
1328;SDS011;658;48.820;9.354;2023-05-10T00:18:10;1.20;;;1.10;;
1328;SDS011;658;48.820;9.354;2023-05-10T00:22:11;0.90;;;0.90;;
1328;SDS011;658;48.820;9.354;2023-05-10T00:26:11;0.93;;;0.90;;
1328;SDS011;658;48.820;9.354;2023-05-10T00:30:12;0.80;;;0.80;;
1328;SDS011;658;48.820;9.354;2023-05-10T00:34:12;1.23;;;0.80;;
1328;SDS011;658;48.820;9.354;2023-05-10T00:38:15;1.13;;;0.80;;
1328;SDS011;658;48.820;9.354;2023-05-10T00:42:18;0.70;;;0.70;;
1328;SDS011;658;48.820;9.354;2023-05-10T00:46:21;0.60;;;0.60;;
1328;SDS011;658;48.820;9.354;2023-05-10T00:50:24;0.67;;;0.60;;
1328;SDS011;658;48.820;9.354;2023-05-10T00:54:25;1.63;;;0.83;;
1328;SDS011;658;48.820;9.354;2023-05-10T00:58:27;1.07;;;0.70;;
1328;SDS011;658;48.820;9.354;2023-05-10T01:02:28;1.30;;;0.70;;
1328;SDS011;658;48.820;9.354;2023-05-10T01:06:29;0.50;;;0.50;;
1328;SDS011;658;48.820;9.354;2023-05-10T01:15:26;1.37;;;0.70;;
1328;SDS011;658;48.820;9.354;2023-05-10T01:19:28;0.50;;;0.50;;
1328;SDS011;658;48.820;9.354;2023-05-10T01:36:58;0.40;;;0.40;;
1328;SDS011;658;48.820;9.354;2023-05-10T01:45:24;0.47;;;0.47;;
1328;SDS011;658;48.820;9.354;2023-05-10T01:49:32;0.70;;;0.60;;
1328;SDS011;658;48.820;9.354;2023-05-10T01:53:41;0.50;;;0.50;;
1328;SDS011;658;48.820;9.354;2023-05-10T01:57:46;1.57;;;0.63;;
1328;SDS011;658;48.820;9.354;2023-05-10T02:01:50;0.47;;;0.40;;
1328;SDS011;658;48.820;9.354;2023-05-10T02:05:52;0.40;;;0.40;;
1328;SDS011;658;48.820;9.354;2023-05-10T02:09:55;0.53;;;0.53;;
1328;SDS011;658;48.820;9.354;2023-05-10T02:13:56;0.40;;;0.40;;
1328;SDS011;658;48.820;9.354;2023-05-10T02:17:58;0.50;;;0.50;;
1328;SDS011;658;48.820;9.354;2023-05-10T02:22:00;0.50;;;0.40;;
1328;SDS011;658;48.820;9.354;2023-05-10T02:26:03;0.80;;;0.50;;
1328;SDS011;658;48.820;9.354;2023-05-10T02:30:06;0.40;;;0.40;;
1328;SDS011;658;48.820;9.354;2023-05-10T02:34:07;0.50;;;0.50;;
1328;SDS011;658;48.820;9.354;2023-05-10T02:38:12;0.60;;;0.60;;
1328;SDS011;658;48.820;9.354;2023-05-10T02:42:18;0.50;;;0.47;;
1328;SDS011;658;48.820;9.354;2023-05-10T02:46:22;0.67;;;0.67;;
1328;SDS011;658;48.820;9.354;2023-05-10T02:50:24;0.93;;;0.50;;
1328;SDS011;658;48.820;9.354;2023-05-10T02:54:29;0.97;;;0.60;;
1328;SDS011;658;48.820;9.354;2023-05-10T02:58:32;0.40;;;0.40;;
1328;SDS011;658;48.820;9.354;2023-05-10T03:02:33;1.43;;;0.50;;
1328;SDS011;658;48.820;9.354;2023-05-10T03:06:33;2.30;;;0.50;;
1328;SDS011;658;48.820;9.354;2023-05-10T03:10:37;0.50;;;0.50;;
1328;SDS011;658;48.820;9.354;2023-05-10T03:27:20;0.67;;;0.40;;
1328;SDS011;658;48.820;9.354;2023-05-10T03:31:23;0.40;;;0.40;;
1328;SDS011;658;48.820;9.354;2023-05-10T03:35:24;1.70;;;0.50;;
1328;SDS011;658;48.820;9.354;2023-05-10T03:39:24;0.50;;;0.50;;
1328;SDS011;658;48.820;9.354;2023-05-10T03:43:25;0.53;;;0.47;;
1328;SDS011;658;48.820;9.354;2023-05-10T03:47:25;0.90;;;0.50;;
1328;SDS011;658;48.820;9.354;2023-05-10T03:51:26;0.60;;;0.60;;
1328;SDS011;658;48.820;9.354;2023-05-10T03:55:31;0.53;;;0.50;;
1328;SDS011;658;48.820;9.354;2023-05-10T03:59:34;0.50;;;0.50;;
1328;SDS011;658;48.820;9.354;2023-05-10T04:03:35;0.50;;;0.50;;
1328;SDS011;658;48.820;9.354;2023-05-10T04:07:36;0.50;;;0.50;;
1328;SDS011;658;48.820;9.354;2023-05-10T04:11:36;0.70;;;0.50;;
1328;SDS011;658;48.820;9.354;2023-05-10T04:15:37;2.83;;;0.50;;
1328;SDS011;658;48.820;9.354;2023-05-10T04:19:37;0.50;;;0.50;;
1328;SDS011;658;48.820;9.354;2023-05-10T04:23:40;2.30;;;0.80;;
1328;SDS011;658;48.820;9.354;2023-05-10T04:27:43;0.60;;;0.43;;
1328;SDS011;658;48.820;9.354;2023-05-10T04:31:46;0.40;;;0.40;;
1328;SDS011;658;48.820;9.354;2023-05-10T04:35:48;0.53;;;0.53;;
1328;SDS011;658;48.820;9.354;2023-05-10T04:39:49;0.50;;;0.50;;
1328;SDS011;658;48.820;9.354;2023-05-10T04:43:50;0.40;;;0.40;;
1328;SDS011;658;48.820;9.354;2023-05-10T04:47:50;1.23;;;0.50;;
1328;SDS011;658;48.820;9.354;2023-05-10T04:51:53;1.10;;;0.50;;
1328;SDS011;658;48.820;9.354;2023-05-10T04:55:54;3.20;;;1.00;;
1328;SDS011;658;48.820;9.354;2023-05-10T04:59:55;1.50;;;1.00;;
1328;SDS011;658;48.820;9.354;2023-05-10T05:03:55;2.70;;;1.23;;
1328;SDS011;658;48.820;9.354;2023-05-10T05:07:56;2.63;;;1.03;;
1328;SDS011;658;48.820;9.354;2023-05-10T05:11:56;5.50;;;1.97;;
1328;SDS011;658;48.820;9.354;2023-05-10T05:15:59;2.90;;;2.40;;
1328;SDS011;658;48.820;9.354;2023-05-10T05:20:01;3.73;;;1.73;;
1328;SDS011;658;48.820;9.354;2023-05-10T05:24:02;2.67;;;1.50;;
1328;SDS011;658;48.820;9.354;2023-05-10T05:28:03;2.43;;;2.10;;
1328;SDS011;658;48.820;9.354;2023-05-10T05:32:03;3.20;;;1.50;;
1328;SDS011;658;48.820;9.354;2023-05-10T05:36:08;2.67;;;1.93;;
1328;SDS011;658;48.820;9.354;2023-05-10T05:40:12;2.30;;;1.40;;
1328;SDS011;658;48.820;9.354;2023-05-10T05:44:13;1.67;;;1.30;;
1328;SDS011;658;48.820;9.354;2023-05-10T05:48:13;3.87;;;1.43;;
1328;SDS011;658;48.820;9.354;2023-05-10T05:52:14;1.53;;;1.30;;
1328;SDS011;658;48.820;9.354;2023-05-10T05:56:14;1.40;;;1.30;;
1328;SDS011;658;48.820;9.354;2023-05-10T06:00:15;1.30;;;1.13;;
1328;SDS011;658;48.820;9.354;2023-05-10T06:04:16;1.13;;;1.03;;
1328;SDS011;658;48.820;9.354;2023-05-10T06:08:17;1.47;;;1.20;;
1328;SDS011;658;48.820;9.354;2023-05-10T06:12:18;2.03;;;1.20;;
1328;SDS011;658;48.820;9.354;2023-05-10T06:16:18;1.37;;;1.27;;
1328;SDS011;658;48.820;9.354;2023-05-10T06:20:19;1.17;;;1.07;;
1328;SDS011;658;48.820;9.354;2023-05-10T06:24:19;2.83;;;1.17;;
1328;SDS011;658;48.820;9.354;2023-05-10T06:28:22;1.60;;;1.23;;
1328;SDS011;658;48.820;9.354;2023-05-10T06:32:23;3.07;;;1.47;;
1328;SDS011;658;48.820;9.354;2023-05-10T06:36:23;1.37;;;1.07;;
1328;SDS011;658;48.820;9.354;2023-05-10T06:40:26;2.40;;;0.97;;
1328;SDS011;658;48.820;9.354;2023-05-10T06:44:27;1.17;;;1.00;;
1328;SDS011;658;48.820;9.354;2023-05-10T06:48:27;1.47;;;0.90;;
1328;SDS011;658;48.820;9.354;2023-05-10T06:52:28;1.13;;;0.90;;
1328;SDS011;658;48.820;9.354;2023-05-10T06:56:29;1.47;;;0.90;;
1328;SDS011;658;48.820;9.354;2023-05-10T07:00:29;1.50;;;1.00;;
1328;SDS011;658;48.820;9.354;2023-05-10T07:04:30;1.50;;;1.03;;
1328;SDS011;658;48.820;9.354;2023-05-10T07:08:33;1.90;;;1.20;;
1328;SDS011;658;48.820;9.354;2023-05-10T07:12:36;1.53;;;1.10;;
1328;SDS011;658;48.820;9.354;2023-05-10T07:16:38;0.80;;;0.70;;
1328;SDS011;658;48.820;9.354;2023-05-10T07:20:38;0.90;;;0.73;;
1328;SDS011;658;48.820;9.354;2023-05-10T07:24:39;1.50;;;1.10;;
1328;SDS011;658;48.820;9.354;2023-05-10T07:28:40;2.07;;;1.13;;
1328;SDS011;658;48.820;9.354;2023-05-10T07:32:43;1.70;;;0.97;;
1328;SDS011;658;48.820;9.354;2023-05-10T07:36:43;2.97;;;1.30;;
1328;SDS011;658;48.820;9.354;2023-05-10T07:40:44;1.20;;;1.10;;
1328;SDS011;658;48.820;9.354;2023-05-10T07:44:45;1.80;;;0.93;;
1328;SDS011;658;48.820;9.354;2023-05-10T07:48:45;1.27;;;0.93;;
1328;SDS011;658;48.820;9.354;2023-05-10T07:52:46;1.10;;;0.73;;
1328;SDS011;658;48.820;9.354;2023-05-10T07:56:48;1.30;;;0.80;;
1328;SDS011;658;48.820;9.354;2023-05-10T08:00:48;1.20;;;1.03;;
1328;SDS011;658;48.820;9.354;2023-05-10T08:04:51;0.93;;;0.77;;
1328;SDS011;658;48.820;9.354;2023-05-10T08:08:52;1.00;;;0.80;;
1328;SDS011;658;48.820;9.354;2023-05-10T08:12:54;0.80;;;0.80;;
1328;SDS011;658;48.820;9.354;2023-05-10T08:16:56;0.80;;;0.80;;
1328;SDS011;658;48.820;9.354;2023-05-10T08:20:57;0.97;;;0.70;;
1328;SDS011;658;48.820;9.354;2023-05-10T08:24:57;0.90;;;0.90;;
1328;SDS011;658;48.820;9.354;2023-05-10T08:28:58;1.20;;;0.70;;
1328;SDS011;658;48.820;9.354;2023-05-10T08:32:59;1.40;;;0.90;;
1328;SDS011;658;48.820;9.354;2023-05-10T08:36:59;1.30;;;0.80;;
1328;SDS011;658;48.820;9.354;2023-05-10T08:41:00;1.60;;;0.80;;
1328;SDS011;658;48.820;9.354;2023-05-10T08:45:02;1.90;;;1.00;;
1328;SDS011;658;48.820;9.354;2023-05-10T08:49:04;0.90;;;0.90;;
1328;SDS011;658;48.820;9.354;2023-05-10T08:53:10;0.70;;;0.70;;
1328;SDS011;658;48.820;9.354;2023-05-10T08:57:12;0.80;;;0.80;;
1328;SDS011;658;48.820;9.354;2023-05-10T09:01:16;0.73;;;0.73;;
1328;SDS011;658;48.820;9.354;2023-05-10T09:05:20;0.80;;;0.80;;
1328;SDS011;658;48.820;9.354;2023-05-10T09:09:21;0.80;;;0.70;;
1328;SDS011;658;48.820;9.354;2023-05-10T09:13:23;1.50;;;0.80;;
1328;SDS011;658;48.820;9.354;2023-05-10T09:17:24;2.63;;;0.70;;
1328;SDS011;658;48.820;9.354;2023-05-10T09:21:27;0.70;;;0.70;;
1328;SDS011;658;48.820;9.354;2023-05-10T09:25:27;1.13;;;0.80;;
1328;SDS011;658;48.820;9.354;2023-05-10T09:29:38;2.87;;;0.70;;
1328;SDS011;658;48.820;9.354;2023-05-10T09:33:43;1.10;;;1.00;;
1328;SDS011;658;48.820;9.354;2023-05-10T09:37:46;0.77;;;0.77;;
1328;SDS011;658;48.820;9.354;2023-05-10T09:41:51;0.50;;;0.50;;
1328;SDS011;658;48.820;9.354;2023-05-10T09:45:53;1.00;;;0.70;;
1328;SDS011;658;48.820;9.354;2023-05-10T09:49:54;2.20;;;0.70;;
1328;SDS011;658;48.820;9.354;2023-05-10T09:54:12;0.80;;;0.80;;
1328;SDS011;658;48.820;9.354;2023-05-10T09:58:14;2.00;;;0.90;;
1328;SDS011;658;48.820;9.354;2023-05-10T10:02:18;0.53;;;0.53;;
1328;SDS011;658;48.820;9.354;2023-05-10T10:06:19;0.70;;;0.70;;
1328;SDS011;658;48.820;9.354;2023-05-10T10:10:20;0.83;;;0.70;;
1328;SDS011;658;48.820;9.354;2023-05-10T10:14:21;0.60;;;0.60;;
1328;SDS011;658;48.820;9.354;2023-05-10T10:18:23;0.73;;;0.50;;
1328;SDS011;658;48.820;9.354;2023-05-10T10:22:26;1.93;;;0.70;;
1328;SDS011;658;48.820;9.354;2023-05-10T10:26:27;0.80;;;0.80;;
1328;SDS011;658;48.820;9.354;2023-05-10T10:34:35;0.77;;;0.77;;
1328;SDS011;658;48.820;9.354;2023-05-10T10:38:36;2.00;;;0.90;;
1328;SDS011;658;48.820;9.354;2023-05-10T10:42:44;0.90;;;0.80;;
1328;SDS011;658;48.820;9.354;2023-05-10T10:46:59;1.57;;;1.10;;
1328;SDS011;658;48.820;9.354;2023-05-10T10:51:01;1.07;;;0.60;;
1328;SDS011;658;48.820;9.354;2023-05-10T10:55:03;1.00;;;0.60;;
1328;SDS011;658;48.820;9.354;2023-05-10T10:59:08;1.20;;;0.90;;
1328;SDS011;658;48.820;9.354;2023-05-10T11:03:11;1.17;;;0.60;;
1328;SDS011;658;48.820;9.354;2023-05-10T11:07:18;0.70;;;0.70;;
1328;SDS011;658;48.820;9.354;2023-05-10T11:11:23;0.80;;;0.60;;
1328;SDS011;658;48.820;9.354;2023-05-10T11:15:28;0.50;;;0.50;;
1328;SDS011;658;48.820;9.354;2023-05-10T11:19:35;0.70;;;0.60;;
1328;SDS011;658;48.820;9.354;2023-05-10T11:27:39;2.00;;;0.50;;
1328;SDS011;658;48.820;9.354;2023-05-10T11:31:43;1.00;;;0.70;;
1328;SDS011;658;48.820;9.354;2023-05-10T11:35:45;0.60;;;0.60;;
1328;SDS011;658;48.820;9.354;2023-05-10T11:39:46;0.60;;;0.60;;
1328;SDS011;658;48.820;9.354;2023-05-10T11:43:52;0.60;;;0.60;;
1328;SDS011;658;48.820;9.354;2023-05-10T11:47:54;0.80;;;0.60;;
1328;SDS011;658;48.820;9.354;2023-05-10T11:52:05;0.70;;;0.70;;
1328;SDS011;658;48.820;9.354;2023-05-10T11:56:07;0.47;;;0.47;;
1328;SDS011;658;48.820;9.354;2023-05-10T12:00:09;0.63;;;0.63;;
1328;SDS011;658;48.820;9.354;2023-05-10T12:04:10;0.97;;;0.60;;
1328;SDS011;658;48.820;9.354;2023-05-10T12:08:12;0.60;;;0.40;;
1328;SDS011;658;48.820;9.354;2023-05-10T12:12:19;1.10;;;0.70;;
1328;SDS011;658;48.820;9.354;2023-05-10T12:16:21;0.60;;;0.60;;
1328;SDS011;658;48.820;9.354;2023-05-10T12:20:23;0.60;;;0.60;;
1328;SDS011;658;48.820;9.354;2023-05-10T12:24:27;1.90;;;0.70;;
1328;SDS011;658;48.820;9.354;2023-05-10T12:28:30;1.07;;;0.80;;
1328;SDS011;658;48.820;9.354;2023-05-10T12:32:38;0.60;;;0.60;;
1328;SDS011;658;48.820;9.354;2023-05-10T12:36:44;0.67;;;0.67;;
1328;SDS011;658;48.820;9.354;2023-05-10T12:40:44;1.57;;;0.93;;
1328;SDS011;658;48.820;9.354;2023-05-10T12:44:45;1.10;;;1.00;;
1328;SDS011;658;48.820;9.354;2023-05-10T12:48:45;0.90;;;0.67;;
1328;SDS011;658;48.820;9.354;2023-05-10T12:52:49;1.53;;;0.70;;
1328;SDS011;658;48.820;9.354;2023-05-10T12:56:50;2.83;;;0.90;;
1328;SDS011;658;48.820;9.354;2023-05-10T13:00:51;1.23;;;0.73;;
1328;SDS011;658;48.820;9.354;2023-05-10T13:04:52;1.00;;;0.90;;
1328;SDS011;658;48.820;9.354;2023-05-10T13:08:52;1.67;;;0.93;;
1328;SDS011;658;48.820;9.354;2023-05-10T13:12:53;2.27;;;1.13;;
1328;SDS011;658;48.820;9.354;2023-05-10T13:16:54;0.80;;;0.80;;
1328;SDS011;658;48.820;9.354;2023-05-10T13:20:54;1.23;;;0.73;;
1328;SDS011;658;48.820;9.354;2023-05-10T13:24:55;0.80;;;0.70;;
1328;SDS011;658;48.820;9.354;2023-05-10T13:28:56;1.07;;;0.97;;
1328;SDS011;658;48.820;9.354;2023-05-10T13:32:56;0.90;;;0.90;;
1328;SDS011;658;48.820;9.354;2023-05-10T13:36:57;0.80;;;0.70;;
1328;SDS011;658;48.820;9.354;2023-05-10T13:40:58;1.93;;;0.83;;
1328;SDS011;658;48.820;9.354;2023-05-10T13:44:59;0.80;;;0.80;;
1328;SDS011;658;48.820;9.354;2023-05-10T13:49:01;0.70;;;0.60;;
1328;SDS011;658;48.820;9.354;2023-05-10T13:53:02;0.70;;;0.70;;
1328;SDS011;658;48.820;9.354;2023-05-10T13:57:02;0.87;;;0.83;;
1328;SDS011;658;48.820;9.354;2023-05-10T14:01:04;2.60;;;1.00;;
1328;SDS011;658;48.820;9.354;2023-05-10T14:05:05;1.83;;;1.10;;
1328;SDS011;658;48.820;9.354;2023-05-10T14:09:06;1.20;;;0.83;;
1328;SDS011;658;48.820;9.354;2023-05-10T14:13:06;0.60;;;0.60;;
1328;SDS011;658;48.820;9.354;2023-05-10T14:17:07;1.67;;;1.03;;
1328;SDS011;658;48.820;9.354;2023-05-10T14:21:08;2.90;;;0.90;;
1328;SDS011;658;48.820;9.354;2023-05-10T14:25:09;1.20;;;0.80;;
1328;SDS011;658;48.820;9.354;2023-05-10T14:29:12;2.07;;;0.80;;
1328;SDS011;658;48.820;9.354;2023-05-10T14:33:13;0.53;;;0.53;;
1328;SDS011;658;48.820;9.354;2023-05-10T14:37:16;1.47;;;0.90;;
1328;SDS011;658;48.820;9.354;2023-05-10T14:41:17;1.90;;;0.90;;
1328;SDS011;658;48.820;9.354;2023-05-10T14:45:18;0.90;;;0.70;;
1328;SDS011;658;48.820;9.354;2023-05-10T14:49:19;1.40;;;1.10;;
1328;SDS011;658;48.820;9.354;2023-05-10T14:53:22;0.80;;;0.80;;
1328;SDS011;658;48.820;9.354;2023-05-10T14:57:23;0.90;;;0.90;;
1328;SDS011;658;48.820;9.354;2023-05-10T15:01:23;1.17;;;0.80;;
1328;SDS011;658;48.820;9.354;2023-05-10T15:05:24;1.17;;;0.80;;
1328;SDS011;658;48.820;9.354;2023-05-10T15:09:25;1.07;;;0.80;;
1328;SDS011;658;48.820;9.354;2023-05-10T15:13:27;1.40;;;1.23;;
1328;SDS011;658;48.820;9.354;2023-05-10T15:17:28;1.23;;;1.00;;
1328;SDS011;658;48.820;9.354;2023-05-10T15:21:28;1.60;;;1.10;;
1328;SDS011;658;48.820;9.354;2023-05-10T15:25:30;1.00;;;0.77;;
1328;SDS011;658;48.820;9.354;2023-05-10T15:29:34;0.73;;;0.73;;
1328;SDS011;658;48.820;9.354;2023-05-10T15:33:36;1.27;;;0.90;;
1328;SDS011;658;48.820;9.354;2023-05-10T15:37:37;1.47;;;0.70;;
1328;SDS011;658;48.820;9.354;2023-05-10T15:41:38;1.57;;;0.80;;
1328;SDS011;658;48.820;9.354;2023-05-10T15:45:38;2.80;;;1.00;;
1328;SDS011;658;48.820;9.354;2023-05-10T15:49:39;1.97;;;1.07;;
1328;SDS011;658;48.820;9.354;2023-05-10T15:53:40;3.03;;;1.00;;
1328;SDS011;658;48.820;9.354;2023-05-10T15:57:41;2.50;;;0.80;;
1328;SDS011;658;48.820;9.354;2023-05-10T16:01:43;1.67;;;0.90;;
1328;SDS011;658;48.820;9.354;2023-05-10T16:05:44;2.60;;;0.80;;
1328;SDS011;658;48.820;9.354;2023-05-10T16:09:46;1.17;;;0.70;;
1328;SDS011;658;48.820;9.354;2023-05-10T16:13:48;1.73;;;0.80;;
1328;SDS011;658;48.820;9.354;2023-05-10T16:17:49;1.17;;;1.07;;
1328;SDS011;658;48.820;9.354;2023-05-10T16:21:49;1.93;;;0.83;;
1328;SDS011;658;48.820;9.354;2023-05-10T16:25:50;1.47;;;0.70;;
1328;SDS011;658;48.820;9.354;2023-05-10T16:29:51;1.07;;;0.63;;
1328;SDS011;658;48.820;9.354;2023-05-10T16:33:51;0.67;;;0.67;;
1328;SDS011;658;48.820;9.354;2023-05-10T16:37:52;1.63;;;0.90;;
1328;SDS011;658;48.820;9.354;2023-05-10T16:41:52;1.00;;;1.00;;
1328;SDS011;658;48.820;9.354;2023-05-10T16:45:53;0.73;;;0.73;;
1328;SDS011;658;48.820;9.354;2023-05-10T16:49:54;0.87;;;0.80;;
1328;SDS011;658;48.820;9.354;2023-05-10T16:53:57;0.80;;;0.80;;
1328;SDS011;658;48.820;9.354;2023-05-10T16:57:58;1.33;;;1.23;;
1328;SDS011;658;48.820;9.354;2023-05-10T17:01:59;0.80;;;0.80;;
1328;SDS011;658;48.820;9.354;2023-05-10T17:06:00;0.70;;;0.70;;
1328;SDS011;658;48.820;9.354;2023-05-10T17:10:01;1.13;;;0.90;;
1328;SDS011;658;48.820;9.354;2023-05-10T17:14:01;3.10;;;1.10;;
1328;SDS011;658;48.820;9.354;2023-05-10T17:18:02;1.00;;;0.90;;
1328;SDS011;658;48.820;9.354;2023-05-10T17:22:03;0.90;;;0.80;;
1328;SDS011;658;48.820;9.354;2023-05-10T17:26:04;1.17;;;1.00;;
1328;SDS011;658;48.820;9.354;2023-05-10T17:30:05;0.90;;;0.90;;
1328;SDS011;658;48.820;9.354;2023-05-10T17:34:07;1.17;;;1.07;;
1328;SDS011;658;48.820;9.354;2023-05-10T17:38:07;0.80;;;0.80;;
1328;SDS011;658;48.820;9.354;2023-05-10T17:42:08;2.77;;;1.10;;
1328;SDS011;658;48.820;9.354;2023-05-10T17:46:08;1.37;;;1.27;;
1328;SDS011;658;48.820;9.354;2023-05-10T17:50:09;1.30;;;1.20;;
1328;SDS011;658;48.820;9.354;2023-05-10T17:54:13;1.00;;;1.00;;
1328;SDS011;658;48.820;9.354;2023-05-10T17:58:13;1.27;;;1.17;;
1328;SDS011;658;48.820;9.354;2023-05-10T18:02:14;1.00;;;1.00;;
1328;SDS011;658;48.820;9.354;2023-05-10T18:06:15;2.30;;;1.20;;
1328;SDS011;658;48.820;9.354;2023-05-10T18:10:15;1.27;;;1.17;;
1328;SDS011;658;48.820;9.354;2023-05-10T18:14:16;1.70;;;1.27;;
1328;SDS011;658;48.820;9.354;2023-05-10T18:18:16;1.40;;;1.30;;
1328;SDS011;658;48.820;9.354;2023-05-10T18:22:17;1.23;;;1.13;;
1328;SDS011;658;48.820;9.354;2023-05-10T18:26:18;1.40;;;1.30;;
1328;SDS011;658;48.820;9.354;2023-05-10T18:30:18;1.50;;;1.20;;
1328;SDS011;658;48.820;9.354;2023-05-10T18:34:21;1.23;;;1.10;;
1328;SDS011;658;48.820;9.354;2023-05-10T18:38:22;1.03;;;0.93;;
1328;SDS011;658;48.820;9.354;2023-05-10T18:42:23;1.40;;;1.30;;
1328;SDS011;658;48.820;9.354;2023-05-10T18:46:23;1.40;;;1.30;;
1328;SDS011;658;48.820;9.354;2023-05-10T18:50:24;1.30;;;1.20;;
1328;SDS011;658;48.820;9.354;2023-05-10T18:54:27;1.10;;;1.10;;
1328;SDS011;658;48.820;9.354;2023-05-10T18:58:28;1.10;;;1.00;;
1328;SDS011;658;48.820;9.354;2023-05-10T19:02:29;1.03;;;1.00;;
1328;SDS011;658;48.820;9.354;2023-05-10T19:06:29;1.50;;;1.20;;
1328;SDS011;658;48.820;9.354;2023-05-10T19:10:30;1.03;;;1.00;;
1328;SDS011;658;48.820;9.354;2023-05-10T19:14:31;1.60;;;1.30;;
1328;SDS011;658;48.820;9.354;2023-05-10T19:18:31;1.33;;;1.07;;
1328;SDS011;658;48.820;9.354;2023-05-10T19:22:32;1.57;;;1.27;;
1328;SDS011;658;48.820;9.354;2023-05-10T19:26:33;1.70;;;1.20;;
1328;SDS011;658;48.820;9.354;2023-05-10T19:30:33;1.40;;;1.30;;
1328;SDS011;658;48.820;9.354;2023-05-10T19:34:34;1.30;;;1.20;;
1328;SDS011;658;48.820;9.354;2023-05-10T19:38:36;1.00;;;1.00;;
1328;SDS011;658;48.820;9.354;2023-05-10T19:42:37;1.43;;;1.00;;
1328;SDS011;658;48.820;9.354;2023-05-10T19:46:38;1.17;;;1.07;;
1328;SDS011;658;48.820;9.354;2023-05-10T19:50:38;1.20;;;1.10;;
1328;SDS011;658;48.820;9.354;2023-05-10T19:54:39;1.00;;;1.00;;
1328;SDS011;658;48.820;9.354;2023-05-10T19:58:43;0.83;;;0.83;;
1328;SDS011;658;48.820;9.354;2023-05-10T20:02:44;1.13;;;1.03;;
1328;SDS011;658;48.820;9.354;2023-05-10T20:06:45;1.33;;;1.10;;
1328;SDS011;658;48.820;9.354;2023-05-10T20:10:45;1.10;;;1.00;;
1328;SDS011;658;48.820;9.354;2023-05-10T20:14:46;1.17;;;1.07;;
1328;SDS011;658;48.820;9.354;2023-05-10T20:18:46;1.00;;;1.00;;
1328;SDS011;658;48.820;9.354;2023-05-10T20:22:47;1.10;;;1.00;;
1328;SDS011;658;48.820;9.354;2023-05-10T20:26:48;1.07;;;0.87;;
1328;SDS011;658;48.820;9.354;2023-05-10T20:30:52;0.90;;;0.90;;
1328;SDS011;658;48.820;9.354;2023-05-10T20:34:54;0.97;;;0.97;;
1328;SDS011;658;48.820;9.354;2023-05-10T20:38:54;1.07;;;0.97;;
1328;SDS011;658;48.820;9.354;2023-05-10T20:42:55;1.00;;;1.00;;
1328;SDS011;658;48.820;9.354;2023-05-10T20:46:56;2.00;;;1.10;;
1328;SDS011;658;48.820;9.354;2023-05-10T20:50:56;1.03;;;0.93;;
1328;SDS011;658;48.820;9.354;2023-05-10T20:54:57;1.10;;;1.00;;
1328;SDS011;658;48.820;9.354;2023-05-10T20:58:58;0.93;;;0.93;;
1328;SDS011;658;48.820;9.354;2023-05-10T21:02:58;1.20;;;1.10;;
1328;SDS011;658;48.820;9.354;2023-05-10T21:06:59;1.07;;;1.03;;
1328;SDS011;658;48.820;9.354;2023-05-10T21:11:03;1.10;;;1.00;;
1328;SDS011;658;48.820;9.354;2023-05-10T21:15:04;0.90;;;0.90;;
1328;SDS011;658;48.820;9.354;2023-05-10T21:19:05;0.90;;;0.90;;
1328;SDS011;658;48.820;9.354;2023-05-10T21:23:08;0.83;;;0.83;;
1328;SDS011;658;48.820;9.354;2023-05-10T21:27:09;0.90;;;0.90;;
1328;SDS011;658;48.820;9.354;2023-05-10T21:31:12;1.23;;;1.10;;
1328;SDS011;658;48.820;9.354;2023-05-10T21:35:15;1.20;;;1.10;;
1328;SDS011;658;48.820;9.354;2023-05-10T21:39:16;1.10;;;1.00;;
1328;SDS011;658;48.820;9.354;2023-05-10T21:43:16;1.00;;;1.00;;
1328;SDS011;658;48.820;9.354;2023-05-10T21:47:17;4.40;;;1.10;;
1328;SDS011;658;48.820;9.354;2023-05-10T21:51:18;0.93;;;0.80;;
1328;SDS011;658;48.820;9.354;2023-05-10T21:55:18;0.90;;;0.90;;
1328;SDS011;658;48.820;9.354;2023-05-10T21:59:19;1.13;;;0.80;;
1328;SDS011;658;48.820;9.354;2023-05-10T22:03:20;1.07;;;1.07;;
1328;SDS011;658;48.820;9.354;2023-05-10T22:07:23;1.10;;;0.80;;
1328;SDS011;658;48.820;9.354;2023-05-10T22:11:24;0.80;;;0.80;;
1328;SDS011;658;48.820;9.354;2023-05-10T22:15:25;0.80;;;0.80;;
1328;SDS011;658;48.820;9.354;2023-05-10T22:19:26;0.80;;;0.80;;
1328;SDS011;658;48.820;9.354;2023-05-10T22:23:26;0.90;;;0.90;;
1328;SDS011;658;48.820;9.354;2023-05-10T22:27:27;0.90;;;0.80;;
1328;SDS011;658;48.820;9.354;2023-05-10T22:31:28;0.93;;;0.93;;
1328;SDS011;658;48.820;9.354;2023-05-10T22:35:28;0.80;;;0.80;;
1328;SDS011;658;48.820;9.354;2023-05-10T22:39:29;1.27;;;1.17;;
1328;SDS011;658;48.820;9.354;2023-05-10T22:43:29;2.50;;;0.90;;
1328;SDS011;658;48.820;9.354;2023-05-10T22:47:30;0.87;;;0.80;;
1328;SDS011;658;48.820;9.354;2023-05-10T22:51:32;1.00;;;0.90;;
1328;SDS011;658;48.820;9.354;2023-05-10T22:55:33;0.90;;;0.90;;
1328;SDS011;658;48.820;9.354;2023-05-10T22:59:35;1.43;;;1.00;;
1328;SDS011;658;48.820;9.354;2023-05-10T23:03:38;0.80;;;0.80;;
1328;SDS011;658;48.820;9.354;2023-05-10T23:07:39;2.17;;;1.00;;
1328;SDS011;658;48.820;9.354;2023-05-10T23:11:39;0.70;;;0.70;;
1328;SDS011;658;48.820;9.354;2023-05-10T23:15:40;0.83;;;0.63;;
1328;SDS011;658;48.820;9.354;2023-05-10T23:19:42;0.70;;;0.70;;
1328;SDS011;658;48.820;9.354;2023-05-10T23:23:43;0.80;;;0.70;;
1328;SDS011;658;48.820;9.354;2023-05-10T23:27:43;0.83;;;0.77;;
1328;SDS011;658;48.820;9.354;2023-05-10T23:31:46;0.70;;;0.70;;
1328;SDS011;658;48.820;9.354;2023-05-10T23:35:47;1.03;;;0.93;;
1328;SDS011;658;48.820;9.354;2023-05-10T23:39:48;1.20;;;1.10;;
1328;SDS011;658;48.820;9.354;2023-05-10T23:43:49;0.63;;;0.60;;
1328;SDS011;658;48.820;9.354;2023-05-10T23:47:49;0.70;;;0.70;;
1328;SDS011;658;48.820;9.354;2023-05-10T23:51:50;0.73;;;0.70;;
1328;SDS011;658;48.820;9.354;2023-05-10T23:55:51;1.20;;;0.80;;
1328;SDS011;658;48.820;9.354;2023-05-10T23:59:51;0.90;;;0.90;;
